sensor_id;sensor_type;location;lat;lon;timestamp;P1;durP1;ratioP1;P2;durP2;ratioP2
23718;SDS011;43322;52.230;5.702;2023-05-18T00:02:25;7.57;;;3.70;;
23718;SDS011;43322;52.230;5.702;2023-05-18T00:04:52;6.72;;;3.33;;
23718;SDS011;43322;52.230;5.702;2023-05-18T00:07:19;5.47;;;3.50;;
23718;SDS011;43322;52.230;5.702;2023-05-18T00:09:46;4.53;;;3.50;;
23718;SDS011;43322;52.230;5.702;2023-05-18T00:12:13;7.03;;;3.33;;
23718;SDS011;43322;52.230;5.702;2023-05-18T00:14:41;8.65;;;3.78;;
23718;SDS011;43322;52.230;5.702;2023-05-18T00:17:07;6.90;;;3.60;;
23718;SDS011;43322;52.230;5.702;2023-05-18T00:19:34;13.85;;;3.80;;
23718;SDS011;43322;52.230;5.702;2023-05-18T00:22:01;6.25;;;3.90;;
23718;SDS011;43322;52.230;5.702;2023-05-18T00:24:28;9.35;;;3.67;;
23718;SDS011;43322;52.230;5.702;2023-05-18T00:26:54;6.55;;;3.83;;
23718;SDS011;43322;52.230;5.702;2023-05-18T00:29:21;7.65;;;3.50;;
23718;SDS011;43322;52.230;5.702;2023-05-18T00:31:49;3.75;;;3.20;;
23718;SDS011;43322;52.230;5.702;2023-05-18T00:34:16;4.07;;;3.20;;
23718;SDS011;43322;52.230;5.702;2023-05-18T00:36:42;4.88;;;3.28;;
23718;SDS011;43322;52.230;5.702;2023-05-18T00:39:09;8.52;;;3.88;;
23718;SDS011;43322;52.230;5.702;2023-05-18T00:41:36;5.18;;;3.30;;
23718;SDS011;43322;52.230;5.702;2023-05-18T00:44:03;6.82;;;3.40;;
23718;SDS011;43322;52.230;5.702;2023-05-18T00:46:30;5.75;;;3.47;;
23718;SDS011;43322;52.230;5.702;2023-05-18T00:48:58;6.82;;;3.58;;
23718;SDS011;43322;52.230;5.702;2023-05-18T00:51:26;7.15;;;3.85;;
23718;SDS011;43322;52.230;5.702;2023-05-18T00:53:54;7.20;;;3.50;;
23718;SDS011;43322;52.230;5.702;2023-05-18T00:56:21;9.45;;;3.58;;
23718;SDS011;43322;52.230;5.702;2023-05-18T00:58:49;8.98;;;3.83;;
23718;SDS011;43322;52.230;5.702;2023-05-18T01:01:19;6.85;;;3.97;;
23718;SDS011;43322;52.230;5.702;2023-05-18T01:03:48;6.85;;;3.40;;
23718;SDS011;43322;52.230;5.702;2023-05-18T01:06:21;7.97;;;3.97;;
23718;SDS011;43322;52.230;5.702;2023-05-18T01:08:50;3.78;;;3.10;;
23718;SDS011;43322;52.230;5.702;2023-05-18T01:11:18;7.20;;;3.45;;
23718;SDS011;43322;52.230;5.702;2023-05-18T01:13:53;9.10;;;3.60;;
23718;SDS011;43322;52.230;5.702;2023-05-18T01:16:27;5.55;;;3.42;;
23718;SDS011;43322;52.230;5.702;2023-05-18T01:19:02;5.78;;;3.72;;
23718;SDS011;43322;52.230;5.702;2023-05-18T01:21:47;5.97;;;4.07;;
23718;SDS011;43322;52.230;5.702;2023-05-18T01:24:23;6.22;;;3.40;;
23718;SDS011;43322;52.230;5.702;2023-05-18T01:26:58;7.47;;;3.30;;
23718;SDS011;43322;52.230;5.702;2023-05-18T01:29:26;5.60;;;3.63;;
23718;SDS011;43322;52.230;5.702;2023-05-18T01:31:54;6.03;;;3.58;;
23718;SDS011;43322;52.230;5.702;2023-05-18T01:34:21;7.75;;;3.47;;
23718;SDS011;43322;52.230;5.702;2023-05-18T01:36:48;6.35;;;3.95;;
23718;SDS011;43322;52.230;5.702;2023-05-18T01:39:15;7.22;;;4.00;;
23718;SDS011;43322;52.230;5.702;2023-05-18T01:41:44;4.65;;;3.50;;
23718;SDS011;43322;52.230;5.702;2023-05-18T01:44:18;5.53;;;3.63;;
23718;SDS011;43322;52.230;5.702;2023-05-18T01:46:50;4.72;;;3.15;;
23718;SDS011;43322;52.230;5.702;2023-05-18T01:49:22;7.63;;;3.85;;
23718;SDS011;43322;52.230;5.702;2023-05-18T01:51:55;4.43;;;3.38;;
23718;SDS011;43322;52.230;5.702;2023-05-18T01:54:26;6.00;;;3.22;;
23718;SDS011;43322;52.230;5.702;2023-05-18T01:56:54;5.43;;;3.30;;
23718;SDS011;43322;52.230;5.702;2023-05-18T01:59:24;4.13;;;3.20;;
23718;SDS011;43322;52.230;5.702;2023-05-18T02:01:51;5.75;;;3.47;;
23718;SDS011;43322;52.230;5.702;2023-05-18T02:04:20;9.32;;;3.60;;
23718;SDS011;43322;52.230;5.702;2023-05-18T02:06:46;8.32;;;3.70;;
23718;SDS011;43322;52.230;5.702;2023-05-18T02:09:13;3.65;;;3.20;;
23718;SDS011;43322;52.230;5.702;2023-05-18T02:11:40;7.63;;;3.63;;
23718;SDS011;43322;52.230;5.702;2023-05-18T02:14:06;3.58;;;3.28;;
23718;SDS011;43322;52.230;5.702;2023-05-18T02:16:34;5.97;;;3.45;;
23718;SDS011;43322;52.230;5.702;2023-05-18T02:19:01;5.45;;;3.72;;
23718;SDS011;43322;52.230;5.702;2023-05-18T02:21:28;7.70;;;3.40;;
23718;SDS011;43322;52.230;5.702;2023-05-18T02:23:55;6.60;;;3.75;;
23718;SDS011;43322;52.230;5.702;2023-05-18T02:26:22;5.32;;;3.30;;
23718;SDS011;43322;52.230;5.702;2023-05-18T02:28:48;5.32;;;3.13;;
23718;SDS011;43322;52.230;5.702;2023-05-18T02:31:15;6.35;;;3.50;;
23718;SDS011;43322;52.230;5.702;2023-05-18T02:33:43;8.55;;;3.53;;
23718;SDS011;43322;52.230;5.702;2023-05-18T02:36:10;5.07;;;2.95;;
23718;SDS011;43322;52.230;5.702;2023-05-18T02:38:38;6.60;;;3.20;;
23718;SDS011;43322;52.230;5.702;2023-05-18T02:41:06;4.40;;;3.22;;
23718;SDS011;43322;52.230;5.702;2023-05-18T02:43:33;7.15;;;3.20;;
23718;SDS011;43322;52.230;5.702;2023-05-18T02:45:59;6.10;;;2.97;;
23718;SDS011;43322;52.230;5.702;2023-05-18T02:48:26;3.38;;;2.88;;
23718;SDS011;43322;52.230;5.702;2023-05-18T02:50:55;8.57;;;3.40;;
23718;SDS011;43322;52.230;5.702;2023-05-18T02:53:22;4.75;;;3.28;;
23718;SDS011;43322;52.230;5.702;2023-05-18T02:55:52;6.10;;;3.10;;
23718;SDS011;43322;52.230;5.702;2023-05-18T02:58:20;6.40;;;3.47;;
23718;SDS011;43322;52.230;5.702;2023-05-18T03:00:49;6.53;;;3.28;;
23718;SDS011;43322;52.230;5.702;2023-05-18T03:03:19;6.63;;;3.20;;
23718;SDS011;43322;52.230;5.702;2023-05-18T03:05:45;6.05;;;3.20;;
23718;SDS011;43322;52.230;5.702;2023-05-18T03:08:13;5.53;;;3.40;;
23718;SDS011;43322;52.230;5.702;2023-05-18T03:10:40;4.40;;;2.95;;
23718;SDS011;43322;52.230;5.702;2023-05-18T03:13:07;4.95;;;3.10;;
23718;SDS011;43322;52.230;5.702;2023-05-18T03:15:33;7.32;;;3.10;;
23718;SDS011;43322;52.230;5.702;2023-05-18T03:18:01;4.80;;;2.85;;
23718;SDS011;43322;52.230;5.702;2023-05-18T03:20:28;5.75;;;3.05;;
23718;SDS011;43322;52.230;5.702;2023-05-18T03:22:55;4.53;;;2.72;;
23718;SDS011;43322;52.230;5.702;2023-05-18T03:25:23;5.07;;;3.20;;
23718;SDS011;43322;52.230;5.702;2023-05-18T03:27:50;9.73;;;3.20;;
23718;SDS011;43322;52.230;5.702;2023-05-18T03:30:17;3.45;;;3.15;;
23718;SDS011;43322;52.230;5.702;2023-05-18T03:32:45;4.55;;;3.08;;
23718;SDS011;43322;52.230;5.702;2023-05-18T03:35:12;7.13;;;3.20;;
23718;SDS011;43322;52.230;5.702;2023-05-18T03:37:39;5.55;;;3.33;;
23718;SDS011;43322;52.230;5.702;2023-05-18T03:40:09;6.00;;;3.00;;
23718;SDS011;43322;52.230;5.702;2023-05-18T03:42:40;3.20;;;2.90;;
23718;SDS011;43322;52.230;5.702;2023-05-18T03:45:08;6.30;;;2.88;;
23718;SDS011;43322;52.230;5.702;2023-05-18T03:47:35;6.47;;;2.70;;
23718;SDS011;43322;52.230;5.702;2023-05-18T03:50:02;3.47;;;2.95;;
23718;SDS011;43322;52.230;5.702;2023-05-18T03:52:30;6.20;;;3.20;;
23718;SDS011;43322;52.230;5.702;2023-05-18T03:54:58;3.55;;;2.97;;
23718;SDS011;43322;52.230;5.702;2023-05-18T03:57:25;4.60;;;3.13;;
23718;SDS011;43322;52.230;5.702;2023-05-18T03:59:54;6.47;;;3.33;;
23718;SDS011;43322;52.230;5.702;2023-05-18T04:02:21;9.57;;;3.65;;
23718;SDS011;43322;52.230;5.702;2023-05-18T04:04:48;5.38;;;2.63;;
23718;SDS011;43322;52.230;5.702;2023-05-18T04:07:18;4.13;;;2.63;;
23718;SDS011;43322;52.230;5.702;2023-05-18T04:09:46;3.72;;;2.80;;
23718;SDS011;43322;52.230;5.702;2023-05-18T04:12:12;3.67;;;3.00;;
23718;SDS011;43322;52.230;5.702;2023-05-18T04:14:39;6.78;;;3.10;;
23718;SDS011;43322;52.230;5.702;2023-05-18T04:17:07;9.80;;;3.35;;
23718;SDS011;43322;52.230;5.702;2023-05-18T04:19:34;7.38;;;3.47;;
23718;SDS011;43322;52.230;5.702;2023-05-18T04:22:01;7.30;;;3.22;;
23718;SDS011;43322;52.230;5.702;2023-05-18T04:24:29;3.70;;;2.90;;
23718;SDS011;43322;52.230;5.702;2023-05-18T04:26:56;3.58;;;3.20;;
23718;SDS011;43322;52.230;5.702;2023-05-18T04:29:24;4.10;;;3.25;;
23718;SDS011;43322;52.230;5.702;2023-05-18T04:31:51;4.07;;;3.30;;
23718;SDS011;43322;52.230;5.702;2023-05-18T04:34:26;5.65;;;3.53;;
23718;SDS011;43322;52.230;5.702;2023-05-18T04:36:53;4.30;;;3.58;;
23718;SDS011;43322;52.230;5.702;2023-05-18T04:39:22;5.57;;;3.28;;
23718;SDS011;43322;52.230;5.702;2023-05-18T04:41:49;6.53;;;3.38;;
23718;SDS011;43322;52.230;5.702;2023-05-18T04:44:22;7.03;;;3.50;;
23718;SDS011;43322;52.230;5.702;2023-05-18T04:46:49;6.03;;;3.70;;
23718;SDS011;43322;52.230;5.702;2023-05-18T04:49:16;9.77;;;4.22;;
23718;SDS011;43322;52.230;5.702;2023-05-18T04:51:47;8.27;;;3.83;;
23718;SDS011;43322;52.230;5.702;2023-05-18T04:54:14;5.57;;;3.50;;
23718;SDS011;43322;52.230;5.702;2023-05-18T04:56:41;7.28;;;4.00;;
23718;SDS011;43322;52.230;5.702;2023-05-18T04:59:07;7.60;;;3.88;;
23718;SDS011;43322;52.230;5.702;2023-05-18T05:01:34;5.10;;;3.67;;
23718;SDS011;43322;52.230;5.702;2023-05-18T05:04:01;7.05;;;3.60;;
23718;SDS011;43322;52.230;5.702;2023-05-18T05:06:30;7.45;;;4.15;;
23718;SDS011;43322;52.230;5.702;2023-05-18T05:08:58;8.23;;;3.67;;
23718;SDS011;43322;52.230;5.702;2023-05-18T05:11:24;6.60;;;3.70;;
23718;SDS011;43322;52.230;5.702;2023-05-18T05:13:51;6.40;;;3.90;;
23718;SDS011;43322;52.230;5.702;2023-05-18T05:16:18;5.03;;;3.63;;
23718;SDS011;43322;52.230;5.702;2023-05-18T05:18:44;4.93;;;3.65;;
23718;SDS011;43322;52.230;5.702;2023-05-18T05:21:11;8.00;;;3.88;;
23718;SDS011;43322;52.230;5.702;2023-05-18T05:23:38;4.47;;;3.53;;
23718;SDS011;43322;52.230;5.702;2023-05-18T05:26:06;7.40;;;3.75;;
23718;SDS011;43322;52.230;5.702;2023-05-18T05:28:33;9.07;;;3.90;;
23718;SDS011;43322;52.230;5.702;2023-05-18T05:30:59;5.72;;;4.00;;
23718;SDS011;43322;52.230;5.702;2023-05-18T05:33:26;5.18;;;3.55;;
23718;SDS011;43322;52.230;5.702;2023-05-18T05:35:53;7.72;;;3.92;;
23718;SDS011;43322;52.230;5.702;2023-05-18T05:38:20;10.07;;;3.55;;
23718;SDS011;43322;52.230;5.702;2023-05-18T05:40:46;6.45;;;3.50;;
23718;SDS011;43322;52.230;5.702;2023-05-18T05:43:14;5.03;;;3.22;;
23718;SDS011;43322;52.230;5.702;2023-05-18T05:45:41;4.93;;;3.17;;
23718;SDS011;43322;52.230;5.702;2023-05-18T05:48:08;8.70;;;3.65;;
23718;SDS011;43322;52.230;5.702;2023-05-18T05:50:35;7.55;;;3.55;;
23718;SDS011;43322;52.230;5.702;2023-05-18T05:53:02;7.00;;;3.42;;
23718;SDS011;43322;52.230;5.702;2023-05-18T05:55:28;7.90;;;3.50;;
23718;SDS011;43322;52.230;5.702;2023-05-18T05:57:55;7.45;;;3.10;;
23718;SDS011;43322;52.230;5.702;2023-05-18T06:00:23;8.02;;;2.95;;
23718;SDS011;43322;52.230;5.702;2023-05-18T06:02:51;4.85;;;2.97;;
23718;SDS011;43322;52.230;5.702;2023-05-18T06:05:18;7.18;;;2.92;;
23718;SDS011;43322;52.230;5.702;2023-05-18T06:07:44;6.13;;;2.75;;
23718;SDS011;43322;52.230;5.702;2023-05-18T06:10:12;8.65;;;2.40;;
23718;SDS011;43322;52.230;5.702;2023-05-18T06:12:38;5.40;;;2.55;;
23718;SDS011;43322;52.230;5.702;2023-05-18T06:15:06;7.93;;;2.78;;
23718;SDS011;43322;52.230;5.702;2023-05-18T06:17:35;6.57;;;2.28;;
23718;SDS011;43322;52.230;5.702;2023-05-18T06:20:02;4.40;;;2.53;;
23718;SDS011;43322;52.230;5.702;2023-05-18T06:22:30;6.57;;;1.95;;
23718;SDS011;43322;52.230;5.702;2023-05-18T06:24:57;4.05;;;2.33;;
23718;SDS011;43322;52.230;5.702;2023-05-18T06:27:24;5.70;;;2.25;;
23718;SDS011;43322;52.230;5.702;2023-05-18T06:29:51;5.63;;;2.30;;
23718;SDS011;43322;52.230;5.702;2023-05-18T06:32:17;4.47;;;2.05;;
23718;SDS011;43322;52.230;5.702;2023-05-18T06:34:46;9.35;;;2.25;;
23718;SDS011;43322;52.230;5.702;2023-05-18T06:37:14;6.72;;;1.95;;
23718;SDS011;43322;52.230;5.702;2023-05-18T06:39:42;6.30;;;2.28;;
23718;SDS011;43322;52.230;5.702;2023-05-18T06:42:08;6.82;;;2.35;;
23718;SDS011;43322;52.230;5.702;2023-05-18T06:44:35;7.45;;;2.30;;
23718;SDS011;43322;52.230;5.702;2023-05-18T06:47:02;5.80;;;1.85;;
23718;SDS011;43322;52.230;5.702;2023-05-18T06:49:29;6.47;;;2.15;;
23718;SDS011;43322;52.230;5.702;2023-05-18T06:51:57;4.80;;;1.98;;
23718;SDS011;43322;52.230;5.702;2023-05-18T06:54:23;4.30;;;2.08;;
23718;SDS011;43322;52.230;5.702;2023-05-18T06:56:50;6.20;;;1.77;;
23718;SDS011;43322;52.230;5.702;2023-05-18T06:59:17;5.05;;;2.33;;
23718;SDS011;43322;52.230;5.702;2023-05-18T07:01:43;5.95;;;1.98;;
23718;SDS011;43322;52.230;5.702;2023-05-18T07:04:10;7.70;;;2.75;;
23718;SDS011;43322;52.230;5.702;2023-05-18T07:06:37;5.80;;;2.00;;
23718;SDS011;43322;52.230;5.702;2023-05-18T07:09:05;4.50;;;1.90;;
23718;SDS011;43322;52.230;5.702;2023-05-18T07:11:33;5.68;;;2.50;;
23718;SDS011;43322;52.230;5.702;2023-05-18T07:13:59;7.30;;;2.20;;
23718;SDS011;43322;52.230;5.702;2023-05-18T07:16:26;4.95;;;2.20;;
23718;SDS011;43322;52.230;5.702;2023-05-18T07:18:53;10.85;;;2.08;;
23718;SDS011;43322;52.230;5.702;2023-05-18T07:21:19;8.98;;;2.45;;
23718;SDS011;43322;52.230;5.702;2023-05-18T07:23:46;6.45;;;2.13;;
23718;SDS011;43322;52.230;5.702;2023-05-18T07:26:14;6.20;;;2.25;;
23718;SDS011;43322;52.230;5.702;2023-05-18T07:28:41;5.35;;;2.10;;
23718;SDS011;43322;52.230;5.702;2023-05-18T07:31:07;5.55;;;2.15;;
23718;SDS011;43322;52.230;5.702;2023-05-18T07:33:34;5.97;;;2.05;;
23718;SDS011;43322;52.230;5.702;2023-05-18T07:36:01;3.65;;;2.30;;
23718;SDS011;43322;52.230;5.702;2023-05-18T07:38:28;5.25;;;2.30;;
23718;SDS011;43322;52.230;5.702;2023-05-18T07:40:55;7.18;;;1.73;;
23718;SDS011;43322;52.230;5.702;2023-05-18T07:43:25;6.63;;;1.95;;
23718;SDS011;43322;52.230;5.702;2023-05-18T07:45:51;5.15;;;1.95;;
23718;SDS011;43322;52.230;5.702;2023-05-18T07:48:18;4.55;;;1.83;;
23718;SDS011;43322;52.230;5.702;2023-05-18T07:50:45;5.28;;;2.00;;
23718;SDS011;43322;52.230;5.702;2023-05-18T07:53:11;4.93;;;2.10;;
23718;SDS011;43322;52.230;5.702;2023-05-18T07:55:38;5.63;;;2.22;;
23718;SDS011;43322;52.230;5.702;2023-05-18T07:58:06;5.22;;;1.70;;
23718;SDS011;43322;52.230;5.702;2023-05-18T08:00:34;6.18;;;2.13;;
23718;SDS011;43322;52.230;5.702;2023-05-18T08:03:01;5.32;;;2.22;;
23718;SDS011;43322;52.230;5.702;2023-05-18T08:05:30;8.35;;;2.17;;
23718;SDS011;43322;52.230;5.702;2023-05-18T08:07:57;3.10;;;1.80;;
23718;SDS011;43322;52.230;5.702;2023-05-18T08:10:23;4.47;;;2.25;;
23718;SDS011;43322;52.230;5.702;2023-05-18T08:12:50;6.05;;;1.85;;
23718;SDS011;43322;52.230;5.702;2023-05-18T08:15:17;6.30;;;2.10;;
23718;SDS011;43322;52.230;5.702;2023-05-18T08:17:45;3.17;;;1.98;;
23718;SDS011;43322;52.230;5.702;2023-05-18T08:20:12;7.93;;;2.13;;
23718;SDS011;43322;52.230;5.702;2023-05-18T08:22:38;5.50;;;2.10;;
23718;SDS011;43322;52.230;5.702;2023-05-18T08:25:05;7.00;;;2.67;;
23718;SDS011;43322;52.230;5.702;2023-05-18T08:27:34;5.88;;;2.60;;
23718;SDS011;43322;52.230;5.702;2023-05-18T08:30:00;4.28;;;2.40;;
23718;SDS011;43322;52.230;5.702;2023-05-18T08:32:27;6.30;;;2.28;;
23718;SDS011;43322;52.230;5.702;2023-05-18T08:34:55;7.75;;;2.90;;
23718;SDS011;43322;52.230;5.702;2023-05-18T08:37:22;6.63;;;2.40;;
23718;SDS011;43322;52.230;5.702;2023-05-18T08:39:53;9.15;;;2.72;;
23718;SDS011;43322;52.230;5.702;2023-05-18T08:42:21;5.30;;;2.53;;
23718;SDS011;43322;52.230;5.702;2023-05-18T08:44:54;8.38;;;2.92;;
23718;SDS011;43322;52.230;5.702;2023-05-18T08:47:27;9.98;;;2.88;;
23718;SDS011;43322;52.230;5.702;2023-05-18T08:49:56;6.82;;;2.45;;
23718;SDS011;43322;52.230;5.702;2023-05-18T08:52:26;5.95;;;2.67;;
23718;SDS011;43322;52.230;5.702;2023-05-18T08:55:00;4.25;;;2.38;;
23718;SDS011;43322;52.230;5.702;2023-05-18T08:57:32;8.27;;;2.90;;
23718;SDS011;43322;52.230;5.702;2023-05-18T08:59:59;5.45;;;2.40;;
23718;SDS011;43322;52.230;5.702;2023-05-18T09:02:27;7.28;;;3.03;;
23718;SDS011;43322;52.230;5.702;2023-05-18T09:04:56;5.50;;;2.20;;
23718;SDS011;43322;52.230;5.702;2023-05-18T09:07:24;6.00;;;2.78;;
23718;SDS011;43322;52.230;5.702;2023-05-18T09:09:52;4.10;;;2.28;;
23718;SDS011;43322;52.230;5.702;2023-05-18T09:12:20;5.50;;;2.35;;
23718;SDS011;43322;52.230;5.702;2023-05-18T09:14:47;5.22;;;2.30;;
23718;SDS011;43322;52.230;5.702;2023-05-18T09:17:14;10.52;;;2.20;;
23718;SDS011;43322;52.230;5.702;2023-05-18T09:19:40;5.28;;;2.25;;
23718;SDS011;43322;52.230;5.702;2023-05-18T09:22:08;4.13;;;2.03;;
23718;SDS011;43322;52.230;5.702;2023-05-18T09:24:35;5.35;;;1.95;;
23718;SDS011;43322;52.230;5.702;2023-05-18T09:27:03;3.25;;;2.25;;
23718;SDS011;43322;52.230;5.702;2023-05-18T09:29:30;4.35;;;1.83;;
23718;SDS011;43322;52.230;5.702;2023-05-18T09:31:57;7.97;;;2.30;;
23718;SDS011;43322;52.230;5.702;2023-05-18T09:34:37;2.97;;;2.15;;
23718;SDS011;43322;52.230;5.702;2023-05-18T09:37:04;5.55;;;2.20;;
23718;SDS011;43322;52.230;5.702;2023-05-18T09:39:32;3.40;;;2.30;;
23718;SDS011;43322;52.230;5.702;2023-05-18T09:41:59;6.82;;;2.30;;
23718;SDS011;43322;52.230;5.702;2023-05-18T09:44:29;3.70;;;2.45;;
23718;SDS011;43322;52.230;5.702;2023-05-18T09:46:56;3.72;;;2.20;;
23718;SDS011;43322;52.230;5.702;2023-05-18T09:49:23;7.88;;;2.38;;
23718;SDS011;43322;52.230;5.702;2023-05-18T09:51:50;7.03;;;2.20;;
23718;SDS011;43322;52.230;5.702;2023-05-18T09:54:17;5.70;;;2.90;;
23718;SDS011;43322;52.230;5.702;2023-05-18T09:56:45;2.97;;;2.33;;
23718;SDS011;43322;52.230;5.702;2023-05-18T09:59:14;9.48;;;2.55;;
23718;SDS011;43322;52.230;5.702;2023-05-18T10:04:33;3.17;;;1.88;;
23718;SDS011;43322;52.230;5.702;2023-05-18T10:07:01;5.57;;;2.40;;
23718;SDS011;43322;52.230;5.702;2023-05-18T10:09:28;3.53;;;1.92;;
23718;SDS011;43322;52.230;5.702;2023-05-18T10:11:56;5.13;;;2.08;;
23718;SDS011;43322;52.230;5.702;2023-05-18T10:14:23;3.90;;;2.35;;
23718;SDS011;43322;52.230;5.702;2023-05-18T10:16:51;4.35;;;2.38;;
23718;SDS011;43322;52.230;5.702;2023-05-18T10:19:17;5.18;;;2.20;;
23718;SDS011;43322;52.230;5.702;2023-05-18T10:21:44;4.40;;;2.55;;
23718;SDS011;43322;52.230;5.702;2023-05-18T10:24:11;6.05;;;2.45;;
23718;SDS011;43322;52.230;5.702;2023-05-18T10:26:43;5.38;;;2.50;;
23718;SDS011;43322;52.230;5.702;2023-05-18T10:29:13;3.83;;;2.28;;
23718;SDS011;43322;52.230;5.702;2023-05-18T10:31:41;3.08;;;2.03;;
23718;SDS011;43322;52.230;5.702;2023-05-18T10:34:10;5.65;;;2.28;;
23718;SDS011;43322;52.230;5.702;2023-05-18T10:36:37;4.72;;;1.83;;
23718;SDS011;43322;52.230;5.702;2023-05-18T10:39:05;3.13;;;2.22;;
23718;SDS011;43322;52.230;5.702;2023-05-18T10:41:33;9.00;;;2.30;;
23718;SDS011;43322;52.230;5.702;2023-05-18T10:44:01;3.42;;;2.30;;
23718;SDS011;43322;52.230;5.702;2023-05-18T10:46:30;4.57;;;2.00;;
23718;SDS011;43322;52.230;5.702;2023-05-18T10:48:58;3.95;;;2.10;;
23718;SDS011;43322;52.230;5.702;2023-05-18T10:51:28;2.90;;;1.90;;
23718;SDS011;43322;52.230;5.702;2023-05-18T10:53:56;4.18;;;2.03;;
23718;SDS011;43322;52.230;5.702;2023-05-18T10:56:36;2.47;;;1.90;;
23718;SDS011;43322;52.230;5.702;2023-05-18T10:59:03;7.90;;;2.45;;
23718;SDS011;43322;52.230;5.702;2023-05-18T11:01:33;4.88;;;2.47;;
23718;SDS011;43322;52.230;5.702;2023-05-18T11:04:01;9.27;;;2.92;;
23718;SDS011;43322;52.230;5.702;2023-05-18T11:06:29;3.80;;;2.00;;
23718;SDS011;43322;52.230;5.702;2023-05-18T11:08:57;6.72;;;2.33;;
23718;SDS011;43322;52.230;5.702;2023-05-18T11:11:24;2.92;;;2.10;;
23718;SDS011;43322;52.230;5.702;2023-05-18T11:13:58;5.03;;;2.42;;
23718;SDS011;43322;52.230;5.702;2023-05-18T11:16:31;4.65;;;2.38;;
23718;SDS011;43322;52.230;5.702;2023-05-18T11:19:03;7.15;;;2.45;;
23718;SDS011;43322;52.230;5.702;2023-05-18T11:24:16;4.20;;;2.08;;
23718;SDS011;43322;52.230;5.702;2023-05-18T11:26:45;6.93;;;2.22;;
23718;SDS011;43322;52.230;5.702;2023-05-18T11:29:15;4.15;;;1.98;;
23718;SDS011;43322;52.230;5.702;2023-05-18T11:31:43;2.85;;;2.17;;
23718;SDS011;43322;52.230;5.702;2023-05-18T11:37:02;4.65;;;2.25;;
23718;SDS011;43322;52.230;5.702;2023-05-18T11:39:29;4.15;;;2.20;;
23718;SDS011;43322;52.230;5.702;2023-05-18T11:42:00;4.22;;;1.90;;
23718;SDS011;43322;52.230;5.702;2023-05-18T11:44:30;3.50;;;2.00;;
23718;SDS011;43322;52.230;5.702;2023-05-18T11:47:00;3.65;;;1.83;;
23718;SDS011;43322;52.230;5.702;2023-05-18T11:49:29;3.40;;;2.50;;
23718;SDS011;43322;52.230;5.702;2023-05-18T11:52:06;4.70;;;2.25;;
23718;SDS011;43322;52.230;5.702;2023-05-18T11:54:37;3.65;;;1.88;;
23718;SDS011;43322;52.230;5.702;2023-05-18T11:57:08;5.43;;;2.47;;
23718;SDS011;43322;52.230;5.702;2023-05-18T11:59:36;4.45;;;2.20;;
23718;SDS011;43322;52.230;5.702;2023-05-18T12:02:04;3.63;;;2.20;;
23718;SDS011;43322;52.230;5.702;2023-05-18T12:04:31;2.67;;;1.90;;
23718;SDS011;43322;52.230;5.702;2023-05-18T12:06:59;5.25;;;2.28;;
23718;SDS011;43322;52.230;5.702;2023-05-18T12:09:31;2.30;;;1.95;;
23718;SDS011;43322;52.230;5.702;2023-05-18T12:11:59;3.63;;;2.03;;
23718;SDS011;43322;52.230;5.702;2023-05-18T12:14:26;5.45;;;2.10;;
23718;SDS011;43322;52.230;5.702;2023-05-18T12:16:53;4.20;;;2.25;;
23718;SDS011;43322;52.230;5.702;2023-05-18T12:19:23;2.15;;;1.88;;
23718;SDS011;43322;52.230;5.702;2023-05-18T12:21:50;2.63;;;2.30;;
23718;SDS011;43322;52.230;5.702;2023-05-18T12:24:17;5.97;;;2.42;;
23718;SDS011;43322;52.230;5.702;2023-05-18T12:26:45;2.55;;;2.00;;
23718;SDS011;43322;52.230;5.702;2023-05-18T12:29:12;5.05;;;2.15;;
23718;SDS011;43322;52.230;5.702;2023-05-18T12:31:44;5.20;;;2.15;;
23718;SDS011;43322;52.230;5.702;2023-05-18T12:34:12;3.92;;;2.50;;
23718;SDS011;43322;52.230;5.702;2023-05-18T12:36:39;3.70;;;1.90;;
23718;SDS011;43322;52.230;5.702;2023-05-18T12:39:08;3.90;;;2.67;;
23718;SDS011;43322;52.230;5.702;2023-05-18T12:41:35;3.80;;;2.30;;
23718;SDS011;43322;52.230;5.702;2023-05-18T12:44:03;4.35;;;2.45;;
23718;SDS011;43322;52.230;5.702;2023-05-18T12:46:30;3.83;;;2.10;;
23718;SDS011;43322;52.230;5.702;2023-05-18T12:48:57;5.50;;;2.55;;
23718;SDS011;43322;52.230;5.702;2023-05-18T12:51:30;2.90;;;2.03;;
23718;SDS011;43322;52.230;5.702;2023-05-18T12:53:57;4.18;;;2.40;;
23718;SDS011;43322;52.230;5.702;2023-05-18T12:56:24;4.05;;;2.20;;
23718;SDS011;43322;52.230;5.702;2023-05-18T12:58:55;3.30;;;2.25;;
23718;SDS011;43322;52.230;5.702;2023-05-18T13:01:24;5.60;;;2.47;;
23718;SDS011;43322;52.230;5.702;2023-05-18T13:03:54;6.03;;;2.30;;
23718;SDS011;43322;52.230;5.702;2023-05-18T13:06:22;5.03;;;2.38;;
23718;SDS011;43322;52.230;5.702;2023-05-18T13:08:51;5.20;;;2.10;;
23718;SDS011;43322;52.230;5.702;2023-05-18T13:11:22;3.45;;;2.30;;
23718;SDS011;43322;52.230;5.702;2023-05-18T13:13:56;2.75;;;2.17;;
23718;SDS011;43322;52.230;5.702;2023-05-18T13:16:25;5.15;;;2.67;;
23718;SDS011;43322;52.230;5.702;2023-05-18T13:18:57;3.90;;;2.47;;
23718;SDS011;43322;52.230;5.702;2023-05-18T13:21:25;3.63;;;2.38;;
23718;SDS011;43322;52.230;5.702;2023-05-18T13:23:52;3.05;;;2.17;;
23718;SDS011;43322;52.230;5.702;2023-05-18T13:26:19;2.92;;;2.25;;
23718;SDS011;43322;52.230;5.702;2023-05-18T13:28:48;4.30;;;2.40;;
23718;SDS011;43322;52.230;5.702;2023-05-18T13:31:16;4.65;;;2.40;;
23718;SDS011;43322;52.230;5.702;2023-05-18T13:33:44;6.70;;;2.63;;
23718;SDS011;43322;52.230;5.702;2023-05-18T13:36:11;5.00;;;2.25;;
23718;SDS011;43322;52.230;5.702;2023-05-18T13:38:38;2.90;;;2.35;;
23718;SDS011;43322;52.230;5.702;2023-05-18T13:41:05;3.92;;;2.45;;
23718;SDS011;43322;52.230;5.702;2023-05-18T13:43:34;4.20;;;2.70;;
23718;SDS011;43322;52.230;5.702;2023-05-18T13:46:01;4.43;;;2.15;;
23718;SDS011;43322;52.230;5.702;2023-05-18T13:48:28;7.03;;;2.33;;
23718;SDS011;43322;52.230;5.702;2023-05-18T13:50:57;3.55;;;2.15;;
23718;SDS011;43322;52.230;5.702;2023-05-18T13:53:25;4.45;;;2.40;;
23718;SDS011;43322;52.230;5.702;2023-05-18T13:55:52;5.55;;;2.75;;
23718;SDS011;43322;52.230;5.702;2023-05-18T13:58:18;4.88;;;2.67;;
23718;SDS011;43322;52.230;5.702;2023-05-18T14:00:45;6.38;;;1.90;;
23718;SDS011;43322;52.230;5.702;2023-05-18T14:03:12;2.80;;;2.08;;
23718;SDS011;43322;52.230;5.702;2023-05-18T14:05:41;5.28;;;2.40;;
23718;SDS011;43322;52.230;5.702;2023-05-18T14:08:09;5.20;;;2.10;;
23718;SDS011;43322;52.230;5.702;2023-05-18T14:10:36;4.65;;;2.63;;
23718;SDS011;43322;52.230;5.702;2023-05-18T14:13:02;3.03;;;2.05;;
23718;SDS011;43322;52.230;5.702;2023-05-18T14:15:30;3.67;;;2.10;;
23718;SDS011;43322;52.230;5.702;2023-05-18T14:17:56;3.63;;;2.22;;
23718;SDS011;43322;52.230;5.702;2023-05-18T14:20:23;2.75;;;2.10;;
23718;SDS011;43322;52.230;5.702;2023-05-18T14:22:50;3.33;;;2.67;;
23718;SDS011;43322;52.230;5.702;2023-05-18T14:25:18;8.63;;;2.53;;
23718;SDS011;43322;52.230;5.702;2023-05-18T14:27:44;6.60;;;2.28;;
23718;SDS011;43322;52.230;5.702;2023-05-18T14:30:11;3.47;;;2.30;;
23718;SDS011;43322;52.230;5.702;2023-05-18T14:32:38;9.60;;;2.28;;
23718;SDS011;43322;52.230;5.702;2023-05-18T14:35:05;3.85;;;2.10;;
23718;SDS011;43322;52.230;5.702;2023-05-18T14:37:32;3.40;;;2.10;;
23718;SDS011;43322;52.230;5.702;2023-05-18T14:40:00;5.53;;;2.60;;
23718;SDS011;43322;52.230;5.702;2023-05-18T14:42:28;2.97;;;1.77;;
23718;SDS011;43322;52.230;5.702;2023-05-18T14:44:55;4.18;;;2.13;;
23718;SDS011;43322;52.230;5.702;2023-05-18T14:47:21;3.63;;;2.03;;
23718;SDS011;43322;52.230;5.702;2023-05-18T14:49:48;3.75;;;2.20;;
23718;SDS011;43322;52.230;5.702;2023-05-18T14:52:15;4.32;;;2.10;;
23718;SDS011;43322;52.230;5.702;2023-05-18T14:54:41;4.30;;;2.58;;
23718;SDS011;43322;52.230;5.702;2023-05-18T14:57:08;3.70;;;2.38;;
23718;SDS011;43322;52.230;5.702;2023-05-18T14:59:36;4.05;;;2.60;;
23718;SDS011;43322;52.230;5.702;2023-05-18T15:02:03;4.97;;;2.20;;